To NAV CANADA Home Page Login to a new session Search on AWWS site Feedback and Comments Disclaimer Vers la page française équivalente Tips FAQ What's new on the site To the Forecasts and Observations / NOTAM section To "File a Flight Plan" website Publications and other links Update of the User's profile FIC Telephone Numbers My Weather Data Folder Route Weather Data Regional Weather Data Local Weather Data To the Forecasts and Observations / NOTAM section
Request Generated 08/02/2015 at 18:20:19 UTC . Weather information available at that time is displayed.

METAR/TAF

SARNIA/SARNIA (CHRIS HADFIELD)/ON    (show WxCam)

METAR CYZR 021800Z AUTO 21012G21KT 9SM CLR 29/20 A2976 RMK SLP073
DENSITY ALT 2500FT=
METAR CYZR 021700Z AUTO 20011G16KT 9SM OVC150 28/19 A2979 RMK SLP085
DENSITY ALT 2300FT=
METAR CYZR 021600Z AUTO 20016G22KT 9SM CLR 27/17 A2981 RMK SLP092
DENSITY ALT 2200FT=

TAF CYZR 021348Z 0214/0302 20005KT P6SM SKC
BECMG 0214/0216 21012KT
FM021600 21018G28KT P6SM FEW040 BKN150 PROB30 0219/0302 2SM TSRA
BR BKN040CB
RMK FCST BASED ON AUTO OBS. NXT FCST BY 022000Z=
Your time UTC time
Weather data provided by Environment Canada and NAV CANADA